Terminal Aerodrome Forecast
Issued by NWS

Home | Current Version | Previous Version | Text Only | Print | Product List | Glossary Off
Versions: 1 2 3 4 5 6 7 8 9 10 11 12 13 14 15 16 17 18

000
FTUS43 KMPX 282330
TAFRWF
TAF
KRWF 282330Z 0100/0124 19013KT P6SM BKN035 OVC060
     FM010900 27007KT P6SM SCT030 SCT100
     FM011400 26009KT P6SM SCT150=

USA.gov is the U.S. government's official web portal to all federal, state and local government web resources and services.